sensor_id;sensor_type;location;lat;lon;timestamp;pressure;altitude;pressure_sealevel;temperature;humidity
50590;BME280;36547;50.514;30.840;2023-11-21T00:00:48;99782.50;;;-0.63;70.05
50590;BME280;36547;50.514;30.840;2023-11-21T00:01:50;99782.47;;;-0.60;70.03
50590;BME280;36547;50.514;30.840;2023-11-21T00:02:52;99781.60;;;-0.61;69.69
50590;BME280;36547;50.514;30.840;2023-11-21T00:03:55;99782.47;;;-0.60;69.37
50590;BME280;36547;50.514;30.840;2023-11-21T00:04:57;99794.62;;;-0.58;69.22
50590;BME280;36547;50.514;30.840;2023-11-21T00:06:00;99787.69;;;-0.60;69.42
50590;BME280;36547;50.514;30.840;2023-11-21T00:07:02;99796.39;;;-0.61;69.52
50590;BME280;36547;50.514;30.840;2023-11-21T00:08:04;99791.17;;;-0.61;69.46
50590;BME280;36547;50.514;30.840;2023-11-21T00:09:06;99792.89;;;-0.59;69.75
50590;BME280;36547;50.514;30.840;2023-11-21T00:10:10;99790.28;;;-0.59;69.58
50590;BME280;36547;50.514;30.840;2023-11-21T00:11:14;99799.84;;;-0.59;69.39
50590;BME280;36547;50.514;30.840;2023-11-21T00:12:17;99795.55;;;-0.63;69.33
50590;BME280;36547;50.514;30.840;2023-11-21T00:13:20;99792.94;;;-0.63;69.41
50590;BME280;36547;50.514;30.840;2023-11-21T00:14:22;99785.98;;;-0.64;69.38
50590;BME280;36547;50.514;30.840;2023-11-21T00:15:25;99780.77;;;-0.64;69.30
50590;BME280;36547;50.514;30.840;2023-11-21T00:16:27;99786.87;;;-0.65;69.19
50590;BME280;36547;50.514;30.840;2023-11-21T00:17:29;99775.58;;;-0.67;69.57
50590;BME280;36547;50.514;30.840;2023-11-21T00:18:32;99781.66;;;-0.67;69.68
50590;BME280;36547;50.514;30.840;2023-11-21T00:19:35;99774.73;;;-0.69;69.55
50590;BME280;36547;50.514;30.840;2023-11-21T00:20:38;99779.10;;;-0.72;69.82
50590;BME280;36547;50.514;30.840;2023-11-21T00:21:40;99787.84;;;-0.73;70.10
50590;BME280;36547;50.514;30.840;2023-11-21T00:22:42;99785.25;;;-0.74;70.27
50590;BME280;36547;50.514;30.840;2023-11-21T00:23:45;99783.55;;;-0.78;70.31
50590;BME280;36547;50.514;30.840;2023-11-21T00:24:47;99784.41;;;-0.78;70.21
50590;BME280;36547;50.514;30.840;2023-11-21T00:25:50;99772.25;;;-0.79;70.40
50590;BME280;36547;50.514;30.840;2023-11-21T00:26:53;99777.47;;;-0.79;70.47
50590;BME280;36547;50.514;30.840;2023-11-21T00:27:57;99775.72;;;-0.78;70.57
50590;BME280;36547;50.514;30.840;2023-11-21T00:29:00;99784.38;;;-0.75;70.50
50590;BME280;36547;50.514;30.840;2023-11-21T00:30:03;99780.05;;;-0.76;70.60
50590;BME280;36547;50.514;30.840;2023-11-21T00:31:06;99788.73;;;-0.75;70.54
50590;BME280;36547;50.514;30.840;2023-11-21T00:32:09;99780.89;;;-0.74;70.50
50590;BME280;36547;50.514;30.840;2023-11-21T00:33:13;99789.60;;;-0.75;70.34
50590;BME280;36547;50.514;30.840;2023-11-21T00:34:15;99784.38;;;-0.75;70.07
50590;BME280;36547;50.514;30.840;2023-11-21T00:35:19;99781.71;;;-0.72;69.94
50590;BME280;36547;50.514;30.840;2023-11-21T00:36:24;99783.50;;;-0.74;69.93
50590;BME280;36547;50.514;30.840;2023-11-21T00:37:26;99785.17;;;-0.69;69.99
50590;BME280;36547;50.514;30.840;2023-11-21T00:38:28;99787.75;;;-0.66;69.86
50590;BME280;36547;50.514;30.840;2023-11-21T00:39:33;99789.52;;;-0.70;69.58
50590;BME280;36547;50.514;30.840;2023-11-21T00:40:36;99788.67;;;-0.72;69.64
50590;BME280;36547;50.514;30.840;2023-11-21T00:41:38;99789.53;;;-0.72;69.63
50590;BME280;36547;50.514;30.840;2023-11-21T00:42:41;99789.60;;;-0.75;69.72
50590;BME280;36547;50.514;30.840;2023-11-21T00:43:44;99787.87;;;-0.76;69.75
50590;BME280;36547;50.514;30.840;2023-11-21T00:44:47;99788.75;;;-0.77;69.78
50590;BME280;36547;50.514;30.840;2023-11-21T00:45:49;99789.61;;;-0.76;69.95
50590;BME280;36547;50.514;30.840;2023-11-21T00:46:52;99791.36;;;-0.77;70.08
50590;BME280;36547;50.514;30.840;2023-11-21T00:47:55;99789.63;;;-0.78;70.13
50590;BME280;36547;50.514;30.840;2023-11-21T00:48:57;99789.63;;;-0.78;70.16
50590;BME280;36547;50.514;30.840;2023-11-21T00:49:59;99791.39;;;-0.80;70.17
50590;BME280;36547;50.514;30.840;2023-11-21T00:51:02;99788.80;;;-0.81;70.13
50590;BME280;36547;50.514;30.840;2023-11-21T00:52:05;99784.44;;;-0.81;70.08
50590;BME280;36547;50.514;30.840;2023-11-21T00:53:08;99784.44;;;-0.81;70.08
50590;BME280;36547;50.514;30.840;2023-11-21T00:54:11;99794.87;;;-0.81;70.20
50590;BME280;36547;50.514;30.840;2023-11-21T00:55:14;99789.64;;;-0.79;70.29
50590;BME280;36547;50.514;30.840;2023-11-21T00:56:17;99791.42;;;-0.83;70.07
50590;BME280;36547;50.514;30.840;2023-11-21T00:57:20;99793.14;;;-0.82;69.81
50590;BME280;36547;50.514;30.840;2023-11-21T00:58:24;99798.36;;;-0.82;69.69
50590;BME280;36547;50.514;30.840;2023-11-21T00:59:27;99797.53;;;-0.85;69.58
50590;BME280;36547;50.514;30.840;2023-11-21T01:00:30;99799.33;;;-0.89;69.59
50590;BME280;36547;50.514;30.840;2023-11-21T01:01:34;99805.48;;;-0.96;69.24
50590;BME280;36547;50.514;30.840;2023-11-21T01:02:36;99810.72;;;-0.99;69.15
50590;BME280;36547;50.514;30.840;2023-11-21T01:03:39;99807.26;;;-1.01;69.42
50590;BME280;36547;50.514;30.840;2023-11-21T01:04:41;99809.08;;;-1.06;69.28
50590;BME280;36547;50.514;30.840;2023-11-21T01:05:45;99803.88;;;-1.09;69.33
50590;BME280;36547;50.514;30.840;2023-11-21T01:06:47;99812.58;;;-1.10;69.53
50590;BME280;36547;50.514;30.840;2023-11-21T01:07:50;99812.58;;;-1.10;69.99
50590;BME280;36547;50.514;30.840;2023-11-21T01:08:52;99810.87;;;-1.14;70.15
50590;BME280;36547;50.514;30.840;2023-11-21T01:09:55;99814.41;;;-1.17;70.22
50590;BME280;36547;50.514;30.840;2023-11-21T01:10:58;99816.17;;;-1.20;70.04
50590;BME280;36547;50.514;30.840;2023-11-21T01:12:02;99808.38;;;-1.23;69.67
50590;BME280;36547;50.514;30.840;2023-11-21T01:13:04;99816.23;;;-1.28;69.35
50590;BME280;36547;50.514;30.840;2023-11-21T01:14:07;99817.16;;;-1.32;69.26
50590;BME280;36547;50.514;30.840;2023-11-21T01:15:09;99818.05;;;-1.34;69.33
50590;BME280;36547;50.514;30.840;2023-11-21T01:16:12;99818.92;;;-1.35;69.55
50590;BME280;36547;50.514;30.840;2023-11-21T01:17:15;99815.47;;;-1.39;70.12
50590;BME280;36547;50.514;30.840;2023-11-21T01:18:18;99822.42;;;-1.39;70.57
50590;BME280;36547;50.514;30.840;2023-11-21T01:19:21;99818.95;;;-1.40;70.99
50590;BME280;36547;50.514;30.840;2023-11-21T01:20:24;99817.22;;;-1.41;70.77
50590;BME280;36547;50.514;30.840;2023-11-21T01:21:26;99817.22;;;-1.41;70.54
50590;BME280;36547;50.514;30.840;2023-11-21T01:22:29;99818.09;;;-1.40;70.24
50590;BME280;36547;50.514;30.840;2023-11-21T01:23:32;99819.84;;;-1.43;69.78
50590;BME280;36547;50.514;30.840;2023-11-21T01:24:34;99830.26;;;-1.43;69.56
50590;BME280;36547;50.514;30.840;2023-11-21T01:25:37;99826.83;;;-1.45;69.46
50590;BME280;36547;50.514;30.840;2023-11-21T01:26:40;99829.45;;;-1.48;69.64
50590;BME280;36547;50.514;30.840;2023-11-21T01:27:43;99827.73;;;-1.49;69.64
50590;BME280;36547;50.514;30.840;2023-11-21T01:28:46;99830.34;;;-1.50;69.89
50590;BME280;36547;50.514;30.840;2023-11-21T01:29:48;99827.75;;;-1.53;69.94
50590;BME280;36547;50.514;30.840;2023-11-21T01:30:51;99828.62;;;-1.53;70.25
50590;BME280;36547;50.514;30.840;2023-11-21T01:31:54;99828.69;;;-1.59;70.34
50590;BME280;36547;50.514;30.840;2023-11-21T01:32:57;99821.70;;;-1.57;70.36
50590;BME280;36547;50.514;30.840;2023-11-21T01:34:00;99821.75;;;-1.60;70.35
50590;BME280;36547;50.514;30.840;2023-11-21T01:35:03;99826.10;;;-1.62;70.10
50590;BME280;36547;50.514;30.840;2023-11-21T01:36:07;99819.16;;;-1.63;70.08
50590;BME280;36547;50.514;30.840;2023-11-21T01:37:10;99821.78;;;-1.66;70.06
50590;BME280;36547;50.514;30.840;2023-11-21T01:38:12;99817.45;;;-1.68;69.97
50590;BME280;36547;50.514;30.840;2023-11-21T01:39:17;99819.20;;;-1.69;69.97
50590;BME280;36547;50.514;30.840;2023-11-21T01:40:19;99819.18;;;-1.66;70.01
50590;BME280;36547;50.514;30.840;2023-11-21T01:41:22;99817.45;;;-1.68;69.91
50590;BME280;36547;50.514;30.840;2023-11-21T01:42:24;99815.70;;;-1.66;69.80
50590;BME280;36547;50.514;30.840;2023-11-21T01:43:27;99822.64;;;-1.64;69.71
50590;BME280;36547;50.514;30.840;2023-11-21T01:44:30;99819.18;;;-1.66;69.52
50590;BME280;36547;50.514;30.840;2023-11-21T01:45:32;99816.59;;;-1.69;69.26
50590;BME280;36547;50.514;30.840;2023-11-21T01:46:38;99819.19;;;-1.67;69.21
50590;BME280;36547;50.514;30.840;2023-11-21T01:47:42;99814.84;;;-1.67;69.00
50590;BME280;36547;50.514;30.840;2023-11-21T01:48:45;99814.86;;;-1.70;68.91
50590;BME280;36547;50.514;30.840;2023-11-21T01:49:47;99813.13;;;-1.71;68.83
50590;BME280;36547;50.514;30.840;2023-11-21T01:50:51;99808.84;;;-1.75;68.81
50590;BME280;36547;50.514;30.840;2023-11-21T01:51:54;99811.48;;;-1.81;68.98
50590;BME280;36547;50.514;30.840;2023-11-21T01:52:57;99810.62;;;-1.82;69.27
50590;BME280;36547;50.514;30.840;2023-11-21T01:54:00;99816.69;;;-1.81;69.61
50590;BME280;36547;50.514;30.840;2023-11-21T01:55:05;99816.70;;;-1.84;70.04
50590;BME280;36547;50.514;30.840;2023-11-21T01:56:09;99821.93;;;-1.87;70.22
50590;BME280;36547;50.514;30.840;2023-11-21T01:57:12;99821.10;;;-1.89;70.00
50590;BME280;36547;50.514;30.840;2023-11-21T01:58:16;99816.78;;;-1.93;69.69
50590;BME280;36547;50.514;30.840;2023-11-21T01:59:20;99819.41;;;-1.96;69.73
50590;BME280;36547;50.514;30.840;2023-11-21T02:00:24;99826.36;;;-2.00;69.70
50590;BME280;36547;50.514;30.840;2023-11-21T02:01:26;99818.55;;;-2.01;69.66
50590;BME280;36547;50.514;30.840;2023-11-21T02:02:29;99815.94;;;-1.98;69.71
50590;BME280;36547;50.514;30.840;2023-11-21T02:03:31;99818.55;;;-2.00;69.65
50590;BME280;36547;50.514;30.840;2023-11-21T02:04:35;99818.55;;;-2.01;70.73
50590;BME280;36547;50.514;30.840;2023-11-21T02:05:38;99827.22;;;-1.99;71.08
50590;BME280;36547;50.514;30.840;2023-11-21T02:06:41;99823.76;;;-2.01;71.05
50590;BME280;36547;50.514;30.840;2023-11-21T02:07:43;99831.61;;;-2.04;70.58
50590;BME280;36547;50.514;30.840;2023-11-21T02:08:47;99828.16;;;-2.08;70.22
50590;BME280;36547;50.514;30.840;2023-11-21T02:09:49;99836.84;;;-2.10;70.23
50590;BME280;36547;50.514;30.840;2023-11-21T02:10:52;99834.24;;;-2.10;70.18
50590;BME280;36547;50.514;30.840;2023-11-21T02:11:54;99839.45;;;-2.14;69.96
50590;BME280;36547;50.514;30.840;2023-11-21T02:12:59;99835.98;;;-2.12;69.82
50590;BME280;36547;50.514;30.840;2023-11-21T02:14:02;99834.25;;;-2.14;69.61
50590;BME280;36547;50.514;30.840;2023-11-21T02:15:05;99837.73;;;-2.15;69.42
50590;BME280;36547;50.514;30.840;2023-11-21T02:16:11;99839.50;;;-2.17;69.35
50590;BME280;36547;50.514;30.840;2023-11-21T02:17:13;99841.24;;;-2.19;69.42
50590;BME280;36547;50.514;30.840;2023-11-21T02:18:16;99837.77;;;-2.18;69.99
50590;BME280;36547;50.514;30.840;2023-11-21T02:19:19;99843.80;;;-2.16;70.55
50590;BME280;36547;50.514;30.840;2023-11-21T02:20:23;99844.66;;;-2.14;70.74
50590;BME280;36547;50.514;30.840;2023-11-21T02:21:26;99844.70;;;-2.17;70.65
50590;BME280;36547;50.514;30.840;2023-11-21T02:22:30;99842.13;;;-2.21;70.43
50590;BME280;36547;50.514;30.840;2023-11-21T02:23:33;99847.31;;;-2.20;70.37
50590;BME280;36547;50.514;30.840;2023-11-21T02:24:36;99846.45;;;-2.22;70.22
50590;BME280;36547;50.514;30.840;2023-11-21T02:25:38;99844.72;;;-2.20;70.11
50590;BME280;36547;50.514;30.840;2023-11-21T02:26:41;99849.05;;;-2.17;69.94
50590;BME280;36547;50.514;30.840;2023-11-21T02:27:44;99856.81;;;-2.16;69.60
50590;BME280;36547;50.514;30.840;2023-11-21T02:28:46;99851.64;;;-2.17;69.39
50590;BME280;36547;50.514;30.840;2023-11-21T02:29:49;99855.13;;;-2.18;69.38
50590;BME280;36547;50.514;30.840;2023-11-21T02:30:52;99844.71;;;-2.18;69.49
50590;BME280;36547;50.514;30.840;2023-11-21T02:31:55;99849.05;;;-2.19;69.49
50590;BME280;36547;50.514;30.840;2023-11-21T02:32:59;99851.61;;;-2.16;69.49
50590;BME280;36547;50.514;30.840;2023-11-21T02:34:02;99849.00;;;-2.16;69.49
50590;BME280;36547;50.514;30.840;2023-11-21T02:35:04;99847.31;;;-2.17;69.63
50590;BME280;36547;50.514;30.840;2023-11-21T02:36:08;99851.61;;;-2.16;69.91
50590;BME280;36547;50.514;30.840;2023-11-21T02:37:11;99851.61;;;-2.16;70.37
50590;BME280;36547;50.514;30.840;2023-11-21T02:38:15;99849.87;;;-2.14;70.95
50590;BME280;36547;50.514;30.840;2023-11-21T02:39:17;99853.34;;;-2.13;70.99
50590;BME280;36547;50.514;30.840;2023-11-21T02:40:20;99842.06;;;-2.14;70.62
50590;BME280;36547;50.514;30.840;2023-11-21T02:41:24;99844.66;;;-2.10;70.34
50590;BME280;36547;50.514;30.840;2023-11-21T02:42:28;99849.87;;;-2.14;69.96
50590;BME280;36547;50.514;30.840;2023-11-21T02:43:30;99844.66;;;-2.14;69.93
50590;BME280;36547;50.514;30.840;2023-11-21T02:44:32;99850.73;;;-2.11;69.89
50590;BME280;36547;50.514;30.840;2023-11-21T02:45:35;99852.47;;;-2.12;69.73
50590;BME280;36547;50.514;30.840;2023-11-21T02:46:38;99857.67;;;-2.12;69.62
50590;BME280;36547;50.514;30.840;2023-11-21T02:47:41;99855.08;;;-2.14;69.55
50590;BME280;36547;50.514;30.840;2023-11-21T02:48:43;99853.38;;;-2.18;69.65
50590;BME280;36547;50.514;30.840;2023-11-21T02:49:46;99853.39;;;-2.19;69.75
50590;BME280;36547;50.514;30.840;2023-11-21T02:50:49;99858.59;;;-2.21;69.91
50590;BME280;36547;50.514;30.840;2023-11-21T02:51:52;99853.39;;;-2.21;70.16
50590;BME280;36547;50.514;30.840;2023-11-21T02:52:56;99856.01;;;-2.25;70.26
50590;BME280;36547;50.514;30.840;2023-11-21T02:53:59;99857.74;;;-2.26;70.38
50590;BME280;36547;50.514;30.840;2023-11-21T02:55:02;99855.14;;;-2.26;70.27
50590;BME280;36547;50.514;30.840;2023-11-21T02:56:05;99852.55;;;-2.27;70.31
50590;BME280;36547;50.514;30.840;2023-11-21T02:57:09;99849.08;;;-2.28;70.30
50590;BME280;36547;50.514;30.840;2023-11-21T02:58:11;99848.21;;;-2.28;70.38
50590;BME280;36547;50.514;30.840;2023-11-21T02:59:14;99852.55;;;-2.27;70.34
50590;BME280;36547;50.514;30.840;2023-11-21T03:00:17;99851.69;;;-2.31;70.15
50590;BME280;36547;50.514;30.840;2023-11-21T03:01:19;99853.42;;;-2.30;70.08
50590;BME280;36547;50.514;30.840;2023-11-21T03:02:22;99855.15;;;-2.29;70.01
50590;BME280;36547;50.514;30.840;2023-11-21T03:03:25;99855.19;;;-2.32;69.78
50590;BME280;36547;50.514;30.840;2023-11-21T03:04:27;99849.95;;;-2.29;70.02
50590;BME280;36547;50.514;30.840;2023-11-21T03:05:29;99861.22;;;-2.28;70.47
50590;BME280;36547;50.514;30.840;2023-11-21T03:06:32;99866.42;;;-2.27;70.61
50590;BME280;36547;50.514;30.840;2023-11-21T03:07:38;99864.69;;;-2.26;70.73
50590;BME280;36547;50.514;30.840;2023-11-21T03:08:41;99872.48;;;-2.25;70.54
50590;BME280;36547;50.514;30.840;2023-11-21T03:09:43;99869.02;;;-2.24;70.37
50590;BME280;36547;50.514;30.840;2023-11-21T03:10:46;99870.75;;;-2.24;70.16
50590;BME280;36547;50.514;30.840;2023-11-21T03:11:48;99869.02;;;-2.27;69.70
50590;BME280;36547;50.514;30.840;2023-11-21T03:12:50;99871.63;;;-2.28;69.36
50590;BME280;36547;50.514;30.840;2023-11-21T03:13:53;99864.70;;;-2.31;69.45
50590;BME280;36547;50.514;30.840;2023-11-21T03:14:55;99870.76;;;-2.29;69.66
50590;BME280;36547;50.514;30.840;2023-11-21T03:15:58;99878.57;;;-2.30;69.77
50590;BME280;36547;50.514;30.840;2023-11-21T03:17:01;99877.70;;;-2.28;69.92
50590;BME280;36547;50.514;30.840;2023-11-21T03:18:03;99878.56;;;-2.29;69.88
50590;BME280;36547;50.514;30.840;2023-11-21T03:19:06;99875.97;;;-2.29;69.76
50590;BME280;36547;50.514;30.840;2023-11-21T03:20:10;99876.88;;;-2.36;69.74
50590;BME280;36547;50.514;30.840;2023-11-21T03:21:12;99879.48;;;-2.37;69.79
50590;BME280;36547;50.514;30.840;2023-11-21T03:22:15;99879.48;;;-2.39;69.76
50590;BME280;36547;50.514;30.840;2023-11-21T03:23:18;99877.75;;;-2.37;69.83
50590;BME280;36547;50.514;30.840;2023-11-21T03:24:20;99882.09;;;-2.42;70.08
50590;BME280;36547;50.514;30.840;2023-11-21T03:25:22;99879.49;;;-2.42;70.23
50590;BME280;36547;50.514;30.840;2023-11-21T03:26:25;99876.89;;;-2.45;70.28
50590;BME280;36547;50.514;30.840;2023-11-21T03:27:27;99871.73;;;-2.46;70.28
50590;BME280;36547;50.514;30.840;2023-11-21T03:28:30;99880.40;;;-2.46;70.14
50590;BME280;36547;50.514;30.840;2023-11-21T03:29:32;99872.60;;;-2.49;69.95
50590;BME280;36547;50.514;30.840;2023-11-21T03:30:34;99879.53;;;-2.48;69.90
50590;BME280;36547;50.514;30.840;2023-11-21T03:31:37;99880.41;;;-2.49;69.81
50590;BME280;36547;50.514;30.840;2023-11-21T03:32:40;99883.01;;;-2.52;69.97
50590;BME280;36547;50.514;30.840;2023-11-21T03:33:44;99876.07;;;-2.50;69.95
50590;BME280;36547;50.514;30.840;2023-11-21T03:34:55;99883.00;;;-2.49;70.20
50590;BME280;36547;50.514;30.840;2023-11-21T03:35:58;99877.80;;;-2.49;70.25
50590;BME280;36547;50.514;30.840;2023-11-21T03:37:01;99879.53;;;-2.50;70.10
50590;BME280;36547;50.514;30.840;2023-11-21T03:38:04;99879.53;;;-2.50;70.07
50590;BME280;36547;50.514;30.840;2023-11-21T03:39:07;99877.80;;;-2.49;70.02
50590;BME280;36547;50.514;30.840;2023-11-21T03:40:11;99875.20;;;-2.49;69.78
50590;BME280;36547;50.514;30.840;2023-11-21T03:41:13;99872.60;;;-2.49;69.64
50590;BME280;36547;50.514;30.840;2023-11-21T03:42:16;99878.67;;;-2.48;69.56
50590;BME280;36547;50.514;30.840;2023-11-21T03:43:19;99880.41;;;-2.51;69.53
50590;BME280;36547;50.514;30.840;2023-11-21T03:44:21;99875.21;;;-2.54;69.21
50590;BME280;36547;50.514;30.840;2023-11-21T03:45:23;99888.21;;;-2.52;69.12
50590;BME280;36547;50.514;30.840;2023-11-21T03:46:26;99883.02;;;-2.55;69.09
50590;BME280;36547;50.514;30.840;2023-11-21T03:47:29;99877.81;;;-2.55;68.98
50590;BME280;36547;50.514;30.840;2023-11-21T03:48:32;99891.69;;;-2.59;68.95
50590;BME280;36547;50.514;30.840;2023-11-21T03:49:34;99885.66;;;-2.60;68.99
50590;BME280;36547;50.514;30.840;2023-11-21T03:50:36;99889.13;;;-2.62;69.17
50590;BME280;36547;50.514;30.840;2023-11-21T03:51:39;99894.32;;;-2.62;69.23
50590;BME280;36547;50.514;30.840;2023-11-21T03:52:41;99896.92;;;-2.65;69.24
50590;BME280;36547;50.514;30.840;2023-11-21T03:53:44;99885.66;;;-2.69;69.57
50590;BME280;36547;50.514;30.840;2023-11-21T03:54:46;99889.13;;;-2.68;69.55
50590;BME280;36547;50.514;30.840;2023-11-21T03:55:49;99894.33;;;-2.73;69.77
50590;BME280;36547;50.514;30.840;2023-11-21T03:56:57;99896.96;;;-2.77;69.67
50590;BME280;36547;50.514;30.840;2023-11-21T03:58:04;99890.89;;;-2.82;69.50
50590;BME280;36547;50.514;30.840;2023-11-21T03:59:11;99897.83;;;-2.86;69.47
50590;BME280;36547;50.514;30.840;2023-11-21T04:00:30;99890.06;;;-2.91;69.37
50590;BME280;36547;50.514;30.840;2023-11-21T04:01:37;99898.72;;;-2.89;69.74
50590;BME280;36547;50.514;30.840;2023-11-21T04:02:40;99893.52;;;-2.92;69.97
50590;BME280;36547;50.514;30.840;2023-11-21T04:03:51;99891.79;;;-2.94;70.08
50590;BME280;36547;50.514;30.840;2023-11-21T04:04:58;99886.59;;;-2.96;70.12
50590;BME280;36547;50.514;30.840;2023-11-21T04:06:23;99883.99;;;-2.97;70.15
50590;BME280;36547;50.514;30.840;2023-11-21T04:07:27;99887.45;;;-2.95;69.98
50590;BME280;36547;50.514;30.840;2023-11-21T04:08:30;99881.39;;;-2.96;70.04
50590;BME280;36547;50.514;30.840;2023-11-21T04:09:32;99884.86;;;-2.97;70.07
50590;BME280;36547;50.514;30.840;2023-11-21T04:10:40;99888.32;;;-2.98;70.09
50590;BME280;36547;50.514;30.840;2023-11-21T04:11:44;99883.99;;;-2.97;69.88
50590;BME280;36547;50.514;30.840;2023-11-21T04:12:50;99883.99;;;-2.96;69.81
50590;BME280;36547;50.514;30.840;2023-11-21T04:14:16;99884.86;;;-2.94;69.81
50590;BME280;36547;50.514;30.840;2023-11-21T04:15:20;99886.59;;;-2.91;69.75
50590;BME280;36547;50.514;30.840;2023-11-21T04:16:24;99884.86;;;-2.94;69.96
50590;BME280;36547;50.514;30.840;2023-11-21T04:17:30;99890.06;;;-2.94;69.84
50590;BME280;36547;50.514;30.840;2023-11-21T04:18:36;99891.80;;;-2.93;69.71
50590;BME280;36547;50.514;30.840;2023-11-21T04:19:41;99891.79;;;-2.96;69.41
50590;BME280;36547;50.514;30.840;2023-11-21T04:20:46;99891.79;;;-2.99;69.25
50590;BME280;36547;50.514;30.840;2023-11-21T04:21:56;99896.98;;;-2.99;69.17
50590;BME280;36547;50.514;30.840;2023-11-21T04:22:58;99897.84;;;-3.01;69.23
50590;BME280;36547;50.514;30.840;2023-11-21T04:24:03;99897.84;;;-3.03;69.05
50590;BME280;36547;50.514;30.840;2023-11-21T04:25:12;99902.17;;;-3.02;69.14
50590;BME280;36547;50.514;30.840;2023-11-21T04:26:18;99903.94;;;-3.04;69.18
50590;BME280;36547;50.514;30.840;2023-11-21T04:27:24;99898.73;;;-3.08;69.23
50590;BME280;36547;50.514;30.840;2023-11-21T04:28:28;99896.14;;;-3.08;69.43
50590;BME280;36547;50.514;30.840;2023-11-21T04:29:34;99903.94;;;-3.10;69.52
50590;BME280;36547;50.514;30.840;2023-11-21T04:30:38;99903.93;;;-3.13;69.58
50590;BME280;36547;50.514;30.840;2023-11-21T04:31:41;99908.26;;;-3.15;69.64
50590;BME280;36547;50.514;30.840;2023-11-21T04:32:47;99908.28;;;-3.18;69.88
50590;BME280;36547;50.514;30.840;2023-11-21T04:33:52;99911.75;;;-3.19;70.13
50590;BME280;36547;50.514;30.840;2023-11-21T04:34:59;99917.80;;;-3.23;70.04
50590;BME280;36547;50.514;30.840;2023-11-21T04:36:03;99912.61;;;-3.23;70.15
50590;BME280;36547;50.514;30.840;2023-11-21T04:37:11;99913.48;;;-3.19;70.59
50590;BME280;36547;50.514;30.840;2023-11-21T04:38:20;99918.67;;;-3.19;71.07
50590;BME280;36547;50.514;30.840;2023-11-21T04:39:33;99924.74;;;-3.17;71.17
50590;BME280;36547;50.514;30.840;2023-11-21T04:40:37;99928.18;;;-3.14;71.31
50590;BME280;36547;50.514;30.840;2023-11-21T04:41:42;99922.12;;;-3.14;71.45
50590;BME280;36547;50.514;30.840;2023-11-21T04:42:57;99922.12;;;-3.13;71.27
50590;BME280;36547;50.514;30.840;2023-11-21T04:44:03;99923.85;;;-3.12;71.04
50590;BME280;36547;50.514;30.840;2023-11-21T04:45:08;99924.72;;;-3.10;70.97
50590;BME280;36547;50.514;30.840;2023-11-21T04:46:32;99920.39;;;-3.11;70.63
50590;BME280;36547;50.514;30.840;2023-11-21T04:47:39;99921.26;;;-3.09;70.38
50590;BME280;36547;50.514;30.840;2023-11-21T04:48:43;99924.73;;;-3.07;70.52
50590;BME280;36547;50.514;30.840;2023-11-21T04:49:49;99926.46;;;-3.06;70.51
50590;BME280;36547;50.514;30.840;2023-11-21T04:50:57;99931.63;;;-3.03;70.31
50590;BME280;36547;50.514;30.840;2023-11-21T04:52:02;99925.57;;;-3.00;70.20
50590;BME280;36547;50.514;30.840;2023-11-21T04:53:10;99929.03;;;-3.00;70.10
50590;BME280;36547;50.514;30.840;2023-11-21T04:54:18;99933.37;;;-2.99;69.96
50590;BME280;36547;50.514;30.840;2023-11-21T04:55:26;99936.84;;;-2.94;69.71
50590;BME280;36547;50.514;30.840;2023-11-21T04:56:31;99944.64;;;-2.91;69.57
50590;BME280;36547;50.514;30.840;2023-11-21T04:57:37;99941.17;;;-2.91;69.91
50590;BME280;36547;50.514;30.840;2023-11-21T04:58:43;99939.45;;;-2.89;70.48
50590;BME280;36547;50.514;30.840;2023-11-21T04:59:49;99937.69;;;-2.87;70.84
50590;BME280;36547;50.514;30.840;2023-11-21T05:00:53;99948.08;;;-2.86;71.09
50590;BME280;36547;50.514;30.840;2023-11-21T05:02:05;99947.22;;;-2.85;71.14
50590;BME280;36547;50.514;30.840;2023-11-21T05:03:09;99940.28;;;-2.82;71.11
50590;BME280;36547;50.514;30.840;2023-11-21T05:04:16;99940.28;;;-2.82;71.15
50590;BME280;36547;50.514;30.840;2023-11-21T05:05:19;99942.02;;;-2.81;70.15
50590;BME280;36547;50.514;30.840;2023-11-21T05:06:28;99942.02;;;-2.78;69.77
50590;BME280;36547;50.514;30.840;2023-11-21T05:07:34;99946.36;;;-2.80;69.38
50590;BME280;36547;50.514;30.840;2023-11-21T05:08:42;99956.75;;;-2.82;68.96
50590;BME280;36547;50.514;30.840;2023-11-21T05:09:47;99959.34;;;-2.83;68.90
50590;BME280;36547;50.514;30.840;2023-11-21T05:10:53;99953.31;;;-2.89;68.79
50590;BME280;36547;50.514;30.840;2023-11-21T05:11:59;99954.17;;;-2.90;68.78
50590;BME280;36547;50.514;30.840;2023-11-21T05:13:12;99955.05;;;-2.89;68.82
50590;BME280;36547;50.514;30.840;2023-11-21T05:14:17;99956.77;;;-2.90;69.15
50590;BME280;36547;50.514;30.840;2023-11-21T05:15:21;99955.91;;;-2.92;69.36
50590;BME280;36547;50.514;30.840;2023-11-21T05:16:26;99961.97;;;-2.93;69.65
50590;BME280;36547;50.514;30.840;2023-11-21T05:17:30;99963.70;;;-2.96;69.65
50590;BME280;36547;50.514;30.840;2023-11-21T05:18:38;99961.96;;;-2.97;69.58
50590;BME280;36547;50.514;30.840;2023-11-21T05:19:44;99964.55;;;-2.99;69.52
50590;BME280;36547;50.514;30.840;2023-11-21T05:20:53;99971.48;;;-3.01;69.50
50590;BME280;36547;50.514;30.840;2023-11-21T05:22:00;99968.02;;;-3.00;69.77
50590;BME280;36547;50.514;30.840;2023-11-21T05:23:21;99966.28;;;-3.01;69.83
50590;BME280;36547;50.514;30.840;2023-11-21T05:24:25;99969.75;;;-3.02;69.98
50590;BME280;36547;50.514;30.840;2023-11-21T05:25:34;99973.23;;;-3.06;69.89
50590;BME280;36547;50.514;30.840;2023-11-21T05:26:39;99977.56;;;-3.06;70.09
50590;BME280;36547;50.514;30.840;2023-11-21T05:27:42;99981.90;;;-3.07;70.17
50590;BME280;36547;50.514;30.840;2023-11-21T05:28:44;99985.36;;;-3.05;70.57
50590;BME280;36547;50.514;30.840;2023-11-21T05:29:50;99979.30;;;-3.05;71.01
50590;BME280;36547;50.514;30.840;2023-11-21T05:30:56;99985.36;;;-3.05;71.29
50590;BME280;36547;50.514;30.840;2023-11-21T05:32:00;99992.30;;;-3.04;71.44
50590;BME280;36547;50.514;30.840;2023-11-21T05:33:07;99987.97;;;-3.03;71.65
50590;BME280;36547;50.514;30.840;2023-11-21T05:34:09;99987.08;;;-3.01;71.68
50590;BME280;36547;50.514;30.840;2023-11-21T05:35:34;99985.34;;;-2.85;71.63